createdAt,value
2023-06-18T00:00:28.492Z,96814.97
2023-06-18T00:02:55.438Z,96820.50
2023-06-18T00:05:22.296Z,96825.59
2023-06-18T00:07:49.150Z,96824.16
2023-06-18T00:10:16.174Z,96827.44
2023-06-18T00:12:43.491Z,96834.75
2023-06-18T00:15:11.052Z,96832.19
2023-06-18T00:17:38.365Z,96830.84
2023-06-18T00:20:06.686Z,96830.19
2023-06-18T00:22:37.978Z,96825.88
2023-06-18T00:25:07.108Z,96832.00
2023-06-18T00:27:34.449Z,96841.44
2023-06-18T00:30:01.515Z,96841.44
2023-06-18T00:32:29.525Z,96837.41
2023-06-18T00:34:56.444Z,96836.59
2023-06-18T00:37:27.260Z,96841.63
2023-06-18T00:39:54.561Z,96851.41
2023-06-18T00:42:21.722Z,96849.41
2023-06-18T00:44:48.748Z,96851.41
2023-06-18T00:47:18.841Z,96856.38
2023-06-18T00:49:46.923Z,96849.06
2023-06-18T00:52:14.750Z,96844.56
2023-06-18T00:54:42.660Z,96842.09
2023-06-18T00:57:10.311Z,96839.78
2023-06-18T00:59:38.840Z,96836.63
2023-06-18T01:02:06.298Z,96841.91
2023-06-18T01:04:33.911Z,96843.56
2023-06-18T01:07:02.748Z,96836.88
2023-06-18T01:09:31.938Z,96830.56
2023-06-18T01:12:01.720Z,96840.66
2023-06-18T01:14:32.035Z,96838.00
2023-06-18T01:17:02.848Z,96842.09
2023-06-18T01:19:53.361Z,96842.09
2023-06-18T01:22:35.564Z,96843.09
2023-06-18T01:25:04.975Z,96848.16
2023-06-18T01:27:41.702Z,96851.34
2023-06-18T01:30:10.781Z,96852.09
2023-06-18T01:32:38.127Z,96844.75
2023-06-18T01:35:06.535Z,96856.13
2023-06-18T01:37:51.593Z,96853.06
2023-06-18T01:40:37.002Z,96848.88
2023-06-18T01:43:07.051Z,96845.56
2023-06-18T01:46:04.405Z,96844.75
2023-06-18T01:48:36.961Z,96848.06
2023-06-18T01:51:07.182Z,96845.75
2023-06-18T01:53:36.333Z,96848.06
2023-06-18T01:56:04.052Z,96848.88
2023-06-18T01:58:35.050Z,96846.47
2023-06-18T02:01:02.303Z,96844.38
2023-06-18T02:03:29.436Z,96854.53
2023-06-18T02:05:57.013Z,96858.69
2023-06-18T02:08:24.020Z,96860.06
2023-06-18T02:10:51.269Z,96855.72
2023-06-18T02:13:18.217Z,96855.72
2023-06-18T02:15:45.425Z,96850.97
2023-06-18T02:18:13.391Z,96854.91
2023-06-18T02:20:41.069Z,96858.56
2023-06-18T02:23:08.172Z,96850.41
2023-06-18T02:25:35.327Z,96857.03
2023-06-18T02:28:07.616Z,96852.53
2023-06-18T02:30:35.366Z,96858.78
2023-06-18T02:33:02.576Z,96862.88
2023-06-18T02:35:30.168Z,96849.34
2023-06-18T02:37:57.883Z,96857.31
2023-06-18T02:40:24.838Z,96871.22
2023-06-18T02:42:53.479Z,96861.13
2023-06-18T02:45:22.193Z,96871.50
2023-06-18T02:47:51.000Z,96873.31
2023-06-18T02:50:19.455Z,96864.69
2023-06-18T02:52:48.351Z,96866.63
2023-06-18T02:55:15.879Z,96871.66
2023-06-18T02:57:43.362Z,96879.63
2023-06-18T03:00:14.163Z,96878.28
2023-06-18T03:02:45.756Z,96878.91
2023-06-18T03:05:12.765Z,96876.25
2023-06-18T03:07:39.579Z,96869.75
2023-06-18T03:10:06.877Z,96869.75
2023-06-18T03:12:33.594Z,96870.56
2023-06-18T03:15:00.541Z,96870.78
2023-06-18T03:17:27.237Z,96882.31
2023-06-18T03:19:54.113Z,96880.00
2023-06-18T03:22:21.535Z,96886.41
2023-06-18T03:24:50.456Z,96882.94
2023-06-18T03:27:17.689Z,96880.94
2023-06-18T03:29:45.277Z,96887.63
2023-06-18T03:32:12.312Z,96883.13
2023-06-18T03:34:43.515Z,96888.44
2023-06-18T03:37:10.772Z,96879.19
2023-06-18T03:39:37.612Z,96881.00
2023-06-18T03:42:04.625Z,96881.44
2023-06-18T03:44:31.407Z,96872.50
2023-06-18T03:46:58.540Z,96876.88
2023-06-18T03:49:25.578Z,96885.75
2023-06-18T03:51:52.401Z,96871.66
2023-06-18T03:54:19.421Z,96877.66
2023-06-18T03:56:46.315Z,96877.19
2023-06-18T03:59:13.129Z,96875.03
2023-06-18T04:01:40.047Z,96875.19
2023-06-18T04:04:06.930Z,96879.16
2023-06-18T04:06:33.808Z,96873.91
2023-06-18T04:09:01.113Z,96875.28
2023-06-18T04:11:28.392Z,96872.31
2023-06-18T04:13:55.515Z,96865.25
2023-06-18T04:16:22.362Z,96880.75
2023-06-18T04:18:49.249Z,96892.34
2023-06-18T04:21:15.931Z,96884.00
2023-06-18T04:23:45.446Z,96891.63
2023-06-18T04:26:12.403Z,96885.41
2023-06-18T04:28:39.652Z,96883.91
2023-06-18T04:31:06.544Z,96895.34
2023-06-18T04:33:33.333Z,96882.66
2023-06-18T04:36:00.165Z,96887.22
2023-06-18T04:38:28.107Z,96888.84
2023-06-18T04:40:55.083Z,96894.53
2023-06-18T04:43:22.070Z,96887.53
2023-06-18T04:45:51.331Z,96886.03
2023-06-18T04:48:18.869Z,96883.94
2023-06-18T04:50:46.068Z,96886.13
2023-06-18T04:53:13.921Z,96894.28
2023-06-18T04:55:41.780Z,96895.91
2023-06-18T04:58:08.659Z,96897.47
2023-06-18T05:00:35.665Z,96893.94
2023-06-18T05:03:03.629Z,96901.44
2023-06-18T05:05:31.223Z,96898.88
2023-06-18T05:07:58.384Z,96903.09
2023-06-18T05:10:25.724Z,96892.28
2023-06-18T05:12:52.626Z,96894.44
2023-06-18T05:15:19.582Z,96904.72
2023-06-18T05:17:46.611Z,96911.44
2023-06-18T05:20:14.072Z,96908.75
2023-06-18T05:22:41.752Z,96898.63
2023-06-18T05:25:09.144Z,96904.00
2023-06-18T05:27:36.209Z,96910.78
2023-06-18T05:30:04.330Z,96916.44
2023-06-18T05:32:31.398Z,96909.06
2023-06-18T05:34:58.272Z,96910.84
2023-06-18T05:37:25.127Z,96919.22
2023-06-18T05:39:54.913Z,96922.34
2023-06-18T05:42:21.727Z,96927.81
2023-06-18T05:44:48.876Z,96928.41
2023-06-18T05:47:16.013Z,96929.63
2023-06-18T05:49:42.787Z,96932.19
2023-06-18T05:52:09.851Z,96925.53
2023-06-18T05:54:36.845Z,96935.72
2023-06-18T05:57:04.063Z,96938.38
2023-06-18T05:59:31.105Z,96940.88
2023-06-18T06:01:58.107Z,96939.94
2023-06-18T06:04:27.520Z,96940.56
2023-06-18T06:06:56.242Z,96936.13
2023-06-18T06:09:23.224Z,96935.28
2023-06-18T06:11:50.031Z,96953.66
2023-06-18T06:14:16.951Z,96945.00
2023-06-18T06:16:44.242Z,96943.22
2023-06-18T06:19:11.663Z,96943.94
2023-06-18T06:21:38.462Z,96946.03
2023-06-18T06:24:05.807Z,96939.19
2023-06-18T06:26:32.733Z,96942.66
2023-06-18T06:28:59.561Z,96946.38
2023-06-18T06:31:26.674Z,96948.91
2023-06-18T06:33:55.437Z,96942.47
2023-06-18T06:36:23.987Z,96952.50
2023-06-18T06:38:50.812Z,96943.75
2023-06-18T06:41:17.781Z,96945.66
2023-06-18T06:43:44.557Z,96943.66
2023-06-18T06:46:11.452Z,96944.47
2023-06-18T06:48:39.621Z,96945.91
2023-06-18T06:51:06.835Z,96950.38
2023-06-18T06:53:34.230Z,96956.66
2023-06-18T06:56:01.032Z,96959.63
2023-06-18T06:58:27.869Z,96961.53
2023-06-18T07:00:54.978Z,96956.91
2023-06-18T07:03:22.251Z,96970.88
2023-06-18T07:05:49.205Z,96967.31
2023-06-18T07:08:16.211Z,96968.31
2023-06-18T07:10:43.041Z,96968.16
2023-06-18T07:13:10.035Z,96969.97
2023-06-18T07:15:36.800Z,96968.63
2023-06-18T07:18:03.806Z,96963.59
2023-06-18T07:20:30.845Z,96968.22
2023-06-18T07:22:57.647Z,96965.25
2023-06-18T07:25:24.449Z,96971.81
2023-06-18T07:27:51.590Z,96968.75
2023-06-18T07:30:18.649Z,96974.47
2023-06-18T07:32:45.408Z,96977.28
2023-06-18T07:35:12.257Z,96974.31
2023-06-18T07:37:39.374Z,96969.63
2023-06-18T07:40:07.380Z,96964.69
2023-06-18T07:42:34.273Z,96971.34
2023-06-18T07:45:01.313Z,96979.63
2023-06-18T07:47:28.066Z,96976.34
2023-06-18T07:49:55.221Z,96979.78
2023-06-18T07:52:22.368Z,96980.84
2023-06-18T07:54:51.993Z,96984.06
2023-06-18T07:57:18.867Z,96987.59
2023-06-18T07:59:46.367Z,96981.84
2023-06-18T08:02:13.031Z,96983.25
2023-06-18T08:04:40.026Z,96982.44
2023-06-18T08:07:06.913Z,96979.75
2023-06-18T08:09:35.155Z,96978.78
2023-06-18T08:12:01.964Z,96990.59
2023-06-18T08:14:29.682Z,96987.84
2023-06-18T08:16:56.524Z,96977.56
2023-06-18T08:19:23.594Z,96991.13
2023-06-18T08:21:50.638Z,96986.94
2023-06-18T08:24:17.577Z,96989.38
2023-06-18T08:26:44.911Z,96990.59
2023-06-18T08:29:11.945Z,96988.16
2023-06-18T08:31:43.010Z,96983.19
2023-06-18T08:34:09.875Z,96981.53
2023-06-18T08:36:37.166Z,96986.88
2023-06-18T08:39:04.157Z,96977.53
2023-06-18T08:41:31.251Z,96986.91
2023-06-18T08:43:59.117Z,96988.34
2023-06-18T08:46:27.859Z,96990.19
2023-06-18T08:49:00.367Z,96994.66
2023-06-18T08:51:28.322Z,96997.81
2023-06-18T08:54:10.208Z,97002.25
2023-06-18T08:56:48.371Z,97004.97
2023-06-18T08:59:15.679Z,96995.94
2023-06-18T09:01:47.097Z,97002.03
2023-06-18T09:04:14.336Z,96996.88
2023-06-18T09:06:41.175Z,96998.50
2023-06-18T09:09:08.349Z,97000.88
2023-06-18T09:11:37.373Z,97006.13
2023-06-18T09:14:05.149Z,97005.53
2023-06-18T09:16:32.128Z,97010.81
2023-06-18T09:19:03.998Z,97009.63
2023-06-18T09:21:44.378Z,97018.88
2023-06-18T09:24:17.260Z,97010.91
2023-06-18T09:26:44.393Z,97021.09
2023-06-18T09:29:12.747Z,97011.63
2023-06-18T09:31:43.405Z,97004.59
2023-06-18T09:34:19.155Z,96995.97
2023-06-18T09:36:48.566Z,96982.06
2023-06-18T09:39:23.687Z,96992.41
2023-06-18T09:41:53.146Z,96994.66
2023-06-18T09:44:21.752Z,96985.06
2023-06-18T09:46:51.880Z,96985.47
2023-06-18T09:49:20.810Z,96978.81
2023-06-18T09:51:50.762Z,96980.19
2023-06-18T09:54:18.037Z,96968.91
2023-06-18T09:57:05.368Z,96974.16
2023-06-18T09:59:32.474Z,96966.22
2023-06-18T10:01:59.806Z,96981.38
2023-06-18T10:04:26.822Z,96971.75
2023-06-18T10:07:20.224Z,96967.16
2023-06-18T10:09:48.581Z,96962.91
2023-06-18T10:12:19.236Z,96964.00
2023-06-18T10:14:49.786Z,96961.28
2023-06-18T10:17:24.882Z,96958.69
2023-06-18T10:20:09.796Z,96956.94
2023-06-18T10:22:59.656Z,96951.22
2023-06-18T10:25:27.072Z,96965.34
2023-06-18T10:27:54.112Z,96953.44
2023-06-18T10:30:21.324Z,96958.41
2023-06-18T10:32:49.041Z,96955.06
2023-06-18T10:35:17.118Z,96958.31
2023-06-18T10:37:45.813Z,96952.84
2023-06-18T10:40:13.520Z,96948.94
2023-06-18T10:42:40.884Z,96961.34
2023-06-18T10:45:12.364Z,96954.25
2023-06-18T10:47:40.198Z,96956.66
2023-06-18T10:50:15.741Z,96953.47
2023-06-18T10:52:52.425Z,96962.88
2023-06-18T10:55:19.308Z,96955.06
2023-06-18T10:57:48.694Z,96947.34
2023-06-18T11:00:30.147Z,96942.44
2023-06-18T11:03:12.898Z,96950.50
2023-06-18T11:05:50.693Z,96940.44
2023-06-18T11:08:28.488Z,96945.81
2023-06-18T11:11:06.787Z,96938.72
2023-06-18T11:13:38.893Z,96941.41
2023-06-18T11:16:10.469Z,96934.47
2023-06-18T11:18:38.206Z,96937.34
2023-06-18T11:21:05.654Z,96937.03
2023-06-18T11:23:33.571Z,96933.66
2023-06-18T11:26:01.148Z,96922.81
2023-06-18T11:28:27.966Z,96928.84
2023-06-18T11:31:00.144Z,96926.72
2023-06-18T11:33:31.486Z,96917.94
2023-06-18T11:36:13.665Z,96917.34
2023-06-18T11:38:42.152Z,96922.94
2023-06-18T11:41:10.594Z,96915.34
2023-06-18T11:43:48.479Z,96930.28
2023-06-18T11:46:28.754Z,96913.16
2023-06-18T11:48:56.617Z,96904.63
2023-06-18T11:51:28.617Z,96906.41
2023-06-18T11:53:56.333Z,96902.81
2023-06-18T11:56:28.295Z,96910.00
2023-06-18T11:58:59.278Z,96912.00
2023-06-18T12:01:30.603Z,96913.63
2023-06-18T12:04:05.754Z,96910.50
2023-06-18T12:06:32.859Z,96922.91
2023-06-18T12:09:11.410Z,96915.41
2023-06-18T12:11:44.600Z,96917.69
2023-06-18T12:14:17.064Z,96909.16
2023-06-18T12:16:47.281Z,96910.06
2023-06-18T12:19:14.911Z,96906.19
2023-06-18T12:21:42.238Z,96900.28
2023-06-18T12:24:09.130Z,96913.88
2023-06-18T12:26:36.164Z,96906.41
2023-06-18T12:29:03.711Z,96904.09
2023-06-18T12:31:30.971Z,96907.00
2023-06-18T12:34:01.523Z,96906.53
2023-06-18T12:36:30.720Z,96918.38
2023-06-18T12:38:57.763Z,96911.78
2023-06-18T12:41:30.777Z,96916.28
2023-06-18T12:43:58.624Z,96913.16
2023-06-18T12:46:28.989Z,96913.59
2023-06-18T12:48:58.679Z,96904.78
2023-06-18T12:51:47.975Z,96909.53
2023-06-18T12:54:19.670Z,96905.63
2023-06-18T12:56:49.000Z,96915.66
2023-06-18T12:59:20.409Z,96905.00
2023-06-18T13:01:48.363Z,96911.59
2023-06-18T13:04:17.415Z,96907.84
2023-06-18T13:06:47.079Z,96908.69
2023-06-18T13:09:14.185Z,96916.22
2023-06-18T13:11:41.387Z,96918.09
2023-06-18T13:14:18.210Z,96909.19
2023-06-18T13:16:53.559Z,96916.22
2023-06-18T13:19:21.579Z,96905.25
2023-06-18T13:21:48.509Z,96911.91
2023-06-18T13:24:15.468Z,96908.72
2023-06-18T13:26:42.590Z,96904.66
2023-06-18T13:29:10.712Z,96902.31
2023-06-18T13:31:38.084Z,96899.31
2023-06-18T13:34:04.958Z,96900.94
2023-06-18T13:36:32.560Z,96897.59
2023-06-18T13:39:00.008Z,96896.66
2023-06-18T13:41:27.666Z,96892.81
2023-06-18T13:43:54.550Z,96887.50
2023-06-18T13:46:22.080Z,96896.84
2023-06-18T13:48:48.841Z,96902.34
2023-06-18T13:51:16.233Z,96899.50
2023-06-18T13:53:42.899Z,96896.03
2023-06-18T13:56:10.053Z,96895.75
2023-06-18T13:58:36.922Z,96897.19
2023-06-18T14:01:03.903Z,96898.91
2023-06-18T14:03:31.450Z,96905.50
2023-06-18T14:05:58.535Z,96897.91
2023-06-18T14:08:25.706Z,96898.28
2023-06-18T14:10:52.952Z,96904.81
2023-06-18T14:13:19.886Z,96901.38
2023-06-18T14:15:48.629Z,96903.41
2023-06-18T14:18:16.016Z,96904.00
2023-06-18T14:20:42.715Z,96905.06
2023-06-18T14:23:09.728Z,96901.63
2023-06-18T14:25:36.634Z,96902.91
2023-06-18T14:28:04.764Z,96902.75
2023-06-18T14:30:31.819Z,96893.47
2023-06-18T14:32:58.775Z,96898.63
2023-06-18T14:35:26.688Z,96892.81
2023-06-18T14:37:54.016Z,96896.56
2023-06-18T14:40:21.097Z,96890.00
2023-06-18T14:42:48.614Z,96896.78
2023-06-18T14:45:16.532Z,96901.69
2023-06-18T14:47:43.467Z,96902.91
2023-06-18T14:50:11.434Z,96897.91
2023-06-18T14:52:39.413Z,96896.84
2023-06-18T14:55:07.303Z,96898.31
2023-06-18T14:57:34.163Z,96892.59
2023-06-18T15:00:01.100Z,96897.50
2023-06-18T15:02:30.182Z,96908.53
2023-06-18T15:04:58.823Z,96906.91
2023-06-18T15:07:26.381Z,96898.00
2023-06-18T15:09:56.287Z,96900.78
2023-06-18T15:12:23.542Z,96903.09
2023-06-18T15:14:50.886Z,96909.44
2023-06-18T15:17:17.740Z,96908.72
2023-06-18T15:19:44.792Z,96919.72
2023-06-18T15:22:11.925Z,96928.47
2023-06-18T15:24:38.777Z,96927.78
2023-06-18T15:27:06.206Z,96935.09
2023-06-18T15:29:36.962Z,96931.34
2023-06-18T15:32:03.951Z,96937.84
2023-06-18T15:34:30.771Z,96938.66
2023-06-18T15:36:58.435Z,96949.88
2023-06-18T15:39:26.729Z,96956.97
2023-06-18T15:41:53.858Z,96954.97
2023-06-18T15:44:20.841Z,96963.88
2023-06-18T15:46:47.774Z,96961.41
2023-06-18T15:49:14.888Z,96958.69
2023-06-18T15:51:42.004Z,96956.59
2023-06-18T15:54:08.822Z,96960.22
2023-06-18T15:56:36.066Z,96962.09
2023-06-18T15:59:02.956Z,96959.63
2023-06-18T16:01:30.008Z,96955.28
2023-06-18T16:03:58.638Z,96960.66
2023-06-18T16:06:25.510Z,96970.59
2023-06-18T16:08:52.390Z,96974.00
2023-06-18T16:11:19.409Z,96978.69
2023-06-18T16:13:46.236Z,96982.53
2023-06-18T16:16:13.304Z,96979.75
2023-06-18T16:18:40.497Z,96987.69
2023-06-18T16:21:08.905Z,96991.22
2023-06-18T16:23:43.209Z,96990.16
2023-06-18T16:26:09.996Z,97000.09
2023-06-18T16:28:37.031Z,96995.63
2023-06-18T16:31:03.867Z,96993.75
2023-06-18T16:33:30.656Z,96998.03
2023-06-18T16:35:57.868Z,96997.69
2023-06-18T16:38:24.724Z,97004.16
2023-06-18T16:40:51.458Z,96997.88
2023-06-18T16:43:19.742Z,97003.13
2023-06-18T16:45:48.127Z,97010.56
2023-06-18T16:48:15.087Z,97013.94
2023-06-18T16:50:42.180Z,97023.50
2023-06-18T16:53:09.221Z,97017.19
2023-06-18T16:55:36.948Z,97038.53
2023-06-18T16:58:03.752Z,97034.50
2023-06-18T17:00:32.659Z,97043.22
2023-06-18T17:02:59.554Z,97040.03
2023-06-18T17:05:28.083Z,97038.22
2023-06-18T17:07:55.042Z,97030.59
2023-06-18T17:10:22.373Z,97035.25
2023-06-18T17:12:49.214Z,97047.72
2023-06-18T17:15:16.220Z,97050.25
2023-06-18T17:17:43.589Z,97054.78
2023-06-18T17:20:10.828Z,97067.22
2023-06-18T17:22:37.747Z,97064.59
2023-06-18T17:25:05.184Z,97059.88
2023-06-18T17:27:34.968Z,97067.41
2023-06-18T17:30:02.228Z,97060.44
2023-06-18T17:32:29.166Z,97052.22
2023-06-18T17:34:55.909Z,97052.84
2023-06-18T17:37:22.737Z,97051.44
2023-06-18T17:39:49.713Z,97049.03
2023-06-18T17:42:16.561Z,97044.94
2023-06-18T17:44:43.409Z,97047.03
2023-06-18T17:47:10.084Z,97045.81
2023-06-18T17:49:39.916Z,97039.28
2023-06-18T17:52:07.142Z,97045.72
2023-06-18T17:54:33.986Z,97041.66
2023-06-18T17:57:01.002Z,97046.44
2023-06-18T17:59:27.827Z,97057.81
2023-06-18T18:01:59.964Z,97060.13
2023-06-18T18:04:28.216Z,97060.34
2023-06-18T18:06:58.047Z,97051.53
2023-06-18T18:09:26.116Z,97062.22
2023-06-18T18:11:53.173Z,97064.50
2023-06-18T18:14:24.688Z,97057.31
2023-06-18T18:16:52.601Z,97062.25
2023-06-18T18:19:20.302Z,97070.50
2023-06-18T18:21:47.143Z,97062.66
2023-06-18T18:24:14.363Z,97075.06
2023-06-18T18:26:48.530Z,97069.09
2023-06-18T18:29:17.039Z,97075.69
2023-06-18T18:31:44.643Z,97077.75
2023-06-18T18:34:12.034Z,97077.75
2023-06-18T18:36:39.059Z,97081.88
2023-06-18T18:39:06.223Z,97079.63
2023-06-18T18:41:33.107Z,97080.03
2023-06-18T18:44:00.152Z,97089.09
2023-06-18T18:46:27.465Z,97089.50
2023-06-18T18:48:54.453Z,97081.47
2023-06-18T18:51:21.550Z,97094.84
2023-06-18T18:53:51.487Z,97096.28
2023-06-18T18:56:19.352Z,97094.66
2023-06-18T18:58:46.318Z,97100.81
2023-06-18T19:01:13.448Z,97112.56
2023-06-18T19:03:42.511Z,97106.41
2023-06-18T19:06:10.336Z,97115.84
2023-06-18T19:08:38.875Z,97120.19
2023-06-18T19:11:06.473Z,97120.78
2023-06-18T19:13:34.111Z,97123.06
2023-06-18T19:16:00.888Z,97124.47
2023-06-18T19:18:27.852Z,97124.47
2023-06-18T19:20:57.731Z,97126.34
2023-06-18T19:23:24.689Z,97124.91
2023-06-18T19:25:52.091Z,97115.22
2023-06-18T19:28:19.129Z,97116.66
2023-06-18T19:30:46.749Z,97124.69
2023-06-18T19:33:13.442Z,97129.44
2023-06-18T19:35:42.275Z,97135.78
2023-06-18T19:38:08.991Z,97136.75
2023-06-18T19:40:36.030Z,97142.13
2023-06-18T19:43:03.291Z,97139.66
2023-06-18T19:45:30.080Z,97144.19
2023-06-18T19:47:56.882Z,97148.28
2023-06-18T19:50:25.026Z,97148.91
2023-06-18T19:52:52.425Z,97142.31
2023-06-18T19:55:21.400Z,97152.41
2023-06-18T19:57:51.869Z,97159.38
2023-06-18T20:00:19.639Z,97151.16
2023-06-18T20:02:46.731Z,97150.31
2023-06-18T20:05:13.753Z,97144.56
2023-06-18T20:07:41.159Z,97153.59
2023-06-18T20:10:08.587Z,97153.38
2023-06-18T20:12:35.729Z,97152.75
2023-06-18T20:15:04.235Z,97157.88
2023-06-18T20:17:31.078Z,97153.53
2023-06-18T20:19:57.921Z,97153.53
2023-06-18T20:22:25.330Z,97164.22
2023-06-18T20:24:52.258Z,97156.00
2023-06-18T20:27:19.270Z,97149.81
2023-06-18T20:29:47.234Z,97157.63
2023-06-18T20:32:14.107Z,97157.22
2023-06-18T20:34:41.029Z,97153.06
2023-06-18T20:37:08.571Z,97158.81
2023-06-18T20:39:35.614Z,97151.19
2023-06-18T20:42:02.630Z,97157.94
2023-06-18T20:44:29.583Z,97148.44
2023-06-18T20:46:56.535Z,97154.16
2023-06-18T20:49:23.753Z,97153.69
2023-06-18T20:51:50.555Z,97151.66
2023-06-18T20:54:18.775Z,97161.72
2023-06-18T20:56:46.694Z,97156.16
2023-06-18T20:59:13.680Z,97158.13
2023-06-18T21:01:40.455Z,97163.25
2023-06-18T21:04:09.040Z,97157.09
2023-06-18T21:06:39.281Z,97147.13
2023-06-18T21:09:06.313Z,97149.38
2023-06-18T21:11:33.164Z,97151.44
2023-06-18T21:13:59.948Z,97154.72
2023-06-18T21:16:27.004Z,97160.03
2023-06-18T21:18:54.538Z,97158.34
2023-06-18T21:21:23.482Z,97160.84
2023-06-18T21:23:50.500Z,97159.16
2023-06-18T21:26:17.292Z,97159.91
2023-06-18T21:28:44.240Z,97156.56
2023-06-18T21:31:11.939Z,97153.25
2023-06-18T21:33:38.768Z,97154.53
2023-06-18T21:36:06.140Z,97159.03
2023-06-18T21:38:32.999Z,97154.53
2023-06-18T21:41:00.279Z,97155.34
2023-06-18T21:43:27.137Z,97155.34
2023-06-18T21:45:54.555Z,97155.78
2023-06-18T21:48:21.534Z,97159.09
2023-06-18T21:50:48.397Z,97150.81
2023-06-18T21:53:15.481Z,97152.63
2023-06-18T21:55:45.542Z,97148.31
2023-06-18T21:58:13.132Z,97153.91
2023-06-18T22:00:39.946Z,97145.84
2023-06-18T22:03:07.170Z,97152.81
2023-06-18T22:05:34.784Z,97147.03
2023-06-18T22:08:11.849Z,97147.59
2023-06-18T22:10:42.993Z,97146.50
2023-06-18T22:13:11.269Z,97147.53
2023-06-18T22:15:38.580Z,97147.53
2023-06-18T22:18:05.523Z,97141.97
2023-06-18T22:20:32.399Z,97145.13
2023-06-18T22:22:59.220Z,97135.75
2023-06-18T22:25:26.216Z,97141.59
2023-06-18T22:27:53.820Z,97142.97
2023-06-18T22:30:20.804Z,97140.19
2023-06-18T22:32:48.233Z,97141.19
2023-06-18T22:35:15.457Z,97145.25
2023-06-18T22:37:42.202Z,97149.50
2023-06-18T22:40:09.551Z,97145.66
2023-06-18T22:42:37.401Z,97139.47
2023-06-18T22:45:04.647Z,97152.84
2023-06-18T22:47:31.805Z,97156.88
2023-06-18T22:49:58.658Z,97147.00
2023-06-18T22:52:25.470Z,97149.38
2023-06-18T22:54:52.496Z,97153.44
2023-06-18T22:57:19.299Z,97141.59
2023-06-18T22:59:46.186Z,97149.31
2023-06-18T23:02:13.426Z,97137.47
2023-06-18T23:04:40.235Z,97140.78
2023-06-18T23:07:09.348Z,97131.75
2023-06-18T23:09:36.254Z,97133.78
2023-06-18T23:12:03.290Z,97128.66
2023-06-18T23:14:30.203Z,97129.19
2023-06-18T23:16:57.740Z,97127.06
2023-06-18T23:19:25.114Z,97128.19
2023-06-18T23:21:51.875Z,97129.59
2023-06-18T23:24:20.362Z,97134.25
2023-06-18T23:26:47.255Z,97132.25
2023-06-18T23:29:14.164Z,97137.38
2023-06-18T23:31:41.205Z,97141.88
2023-06-18T23:34:08.241Z,97138.97
2023-06-18T23:36:36.723Z,97137.28
2023-06-18T23:39:04.977Z,97140.25
2023-06-18T23:41:32.249Z,97140.88
2023-06-18T23:43:59.573Z,97140.78
2023-06-18T23:46:27.052Z,97138.66
2023-06-18T23:48:54.293Z,97141.69
2023-06-18T23:51:21.148Z,97150.59
2023-06-18T23:53:48.726Z,97148.66
2023-06-18T23:56:16.359Z,97144.69
2023-06-18T23:58:43.713Z,97150.31
